Aviation Digital Data Service (ADDS)

Output produced by METARs form (1233 UTC 20 July 2017)
found at http://www.aviationweather.gov/adds/metars/
 
UAAA 201200Z 15003MPS 9999 FEW050CB SCT100 30/09 Q1010 R23R/CLRD65 NOSIG
TAF UAAA 201100Z 2012/2112 16005MPS 9999 SCT050CB BKN100 TX30/2109Z TN14/2101Z 
     BECMG 2104/2105 04006MPS
       
UAAH 201100Z 23005MPS 200V270 9999 FEW046 28/08 Q1012 R05/0///60 NOSIG RMK QFE722/0963
TAF UAAH 201102Z 2012/2021 21006MPS CAVOK
       
UACC 201200Z 31005MPS 270V330 9999 SCT040CB BKN150 25/12 Q1014 R22/0///70 NOSIG RMK QFE729/0972
TAF UACC 200500Z 2006/2106 28006MPS 9999 SCT030CB BKN100 TX26/2010Z TN15/2023Z 
     TEMPO 2006/2016 VRB15MPS 4000 TSRA SQ BKN020CB 
     BECMG 2016/2018 20006MPS 
     TEMPO 2101/2106 VRB15MPS 3000 TSRA SQ BKN020CB
       
UACK 201130Z 33004MPS 290V010 9999 TS BKN050CB 26/13 Q1012 R20/290255 NOSIG RMK QFE735/0981
TAF UACK 200800Z 2009/2018 30004MPS 9999 SCT033CB BKN100 
     TEMPO 2009/2016 3000 -TSRA BKN025CB
       
UACP 201200Z 07003MPS 9999 BKN033CB 21/14 Q1012 R05/0/0060 TEMPO -TSRA RMK QFE747/0996
TAF UACP 200801Z 2009/2018 26003MPS 9999 SCT010 BKN030CB 
     TEMPO 2009/2015 VRB12MPS 2000 TSRAGR SQ SCT006
       
UADD 201200Z 02006MPS 9999 NSC 31/04 Q1010 R13/0///65 NOSIG RMK QFE701/0934
TAF UADD 201100Z 2012/2021 34005G10MPS 9999 NSC
       
UAII 201200Z VRB01MPS CAVOK 36/05 Q1007 R10/0///70 NOSIG RMK QFE720/0960
TAF COR UAII 201100Z 2012/2112 05006MPS CAVOK TX36/2109Z TN20/2101Z 
     TEMPO 2012/2018 02006G11MPS 
     TEMPO 2018/2103 10004MPS 
     TEMPO 2103/2112 36007MPS
       
UAKK 201200Z 28004MPS 250V330 9999 SCT046CB 25/08 Q1014 R23/0///70 NOSIG RMK QFE714/0952
TAF UAKK 201100Z 2012/2112 29006MPS 9999 SCT030CB BKN100 TX25/2110Z TN08/2023Z 
     TEMPO 2012/2016 VRB13MPS 5000 -TSRA SQ BKN020CB 
     BECMG 2016/2018 VRB02MPS SCT040 BKN100
       
UAOO 201200Z 01006MPS 310V010 CAVOK 35/02 Q1011 R05/CLRD70 NOSIG RMK QFE746/0995
TAF AMD UAOO 201100Z 2012/2021 03005MPS CAVOK 
     TEMPO 2012/2015 06008MPS
       
UARR 201200Z 05007MPS 9999 SCT050CB BKN110 26/15 Q1012 R04/190060 TEMPO 05010MPS RMK QFE755/1007
TAF UARR 201101Z 2012/2021 04005G10MPS 9999 -SHRA BKN033CB BKN100 
     PROB40 
     TEMPO 2012/2015 TS 
     BECMG 2015/2016 08007G12MPS
       
UASK 201200Z 33002MPS 260V020 9999 SCT036 BKN110 25/12 Q1012 R30/090060 NOSIG RMK QFE734/0978
TAF UASK 201105Z 2012/2021 32005G10MPS 9999 SCT033CB BKN100 
     TEMPO 2012/2018 VRB14MPS 5000 -TSRA SQ BKN020CB
       
UASP 201200Z 23004MPS 9999 VCTS SCT036CB BKN120 22/16 Q1011 R21/15//65 TEMPO VRB17MPS 3000 -TSRA SQ RMK QFE747/0997
TAF UASP 201100Z 2012/2021 27005MPS 9999 BKN020CB 
     TEMPO 2012/2016 VRB17MPS 3000 -TSRA SQ
       
UASS 201200Z 29004MPS 250V330 9999 FEW050CB BKN150 27/09 Q1012 NOSIG RMK QFE740/0987
TAF UASS 201108Z 2012/2021 30006G11MPS 9999 BKN030CB BKN100 
     TEMPO 2012/2018 VRB16MPS 5000 -TSRA SQ
       
UATE 201200Z 20008MPS CAVOK 36/07 Q1007 R12/0///70 NOSIG RMK QFE753/1005
TAF UATE 201103Z 2012/2112 18006G12MPS CAVOK TX38/2109Z TN22/2102Z 
     BECMG 2014/2016 24005MPS 
     BECMG 2017/2019 03005MPS
       
UATG 201200Z 22007MPS CAVOK 38/07 Q1008 R14/CLRD70 NOSIG RMK QFE758/1011
TAF UATG 201102Z 2012/2112 22008MPS 9999 SCT033CB TX39/2112Z TN24/2101Z 
     BECMG 2014/2015 VRB02MPS 
     BECMG 2103/2105 16009MPS
       
UATT 201200Z 27002MPS 9999 SCT043CB 34/08 Q1012 R13/99 NOSIG RMK QFE739/0986
TAF UATT 201100Z 2012/2112 07005MPS 9999 BKN050CB TX32/2111Z TN19/2101Z 
     TEMPO 2012/2101 VRB12MPS 5000 -TSRA 
     TEMPO 2105/2112 VRB10MPS 5000 -TSRA
       
UAUU 201200Z VRB01MPS 9999 SCT033CB 29/13 Q1011 R33/CLRD70 NOSIG RMK QFE743/0991
TAF UAUU 201100Z 2012/2021 VRB02MPS 9999 SCT030CB 
     TEMPO 2012/2018 VRB12MPS 3000 -TSRA SQ BKN020CB